Time;durP1;ratioP1;P1;durP2;ratioP2;P2;SDS_P1;SDS_P2;PMS_P1;PMS_P2;Temp;Humidity;BMP_temperature;BMP_pressure;BME280_temperature;BME280_humidity;BME280_pressure;Samples;Min_cycle;Max_cycle;Signal;HPM_P1;HPM_P2
2022/12/22 03:28:52;;;;;;;97.10;24.87;;;;;;;;;;6180199;23;20172;-90
2022/12/22 03:31:57;;;;;;;79.93;24.63;;;;;;;;;;6180099;23;20172;-92
2022/12/22 03:35:04;;;;;;;78.47;24.47;;;;;;;;;;6179935;23;20168;-88
2022/12/22 03:38:09;;;;;;;103.27;23.33;;;;;;;;;;6196496;23;20168;-93
2022/12/22 03:48:03;;;;;;;83.57;20.83;;;;;;;;;;6196273;23;20192;-88
2022/12/22 03:51:09;;;;;;;78.07;21.57;;;;;;;;;;6196456;23;20171;-91
2022/12/22 03:54:16;;;;;;;72.47;20.37;;;;;;;;;;6177388;23;20250;-89
2022/12/22 03:57:20;;;;;;;67.67;20.13;;;;;;;;;;6177591;23;20211;-90
2022/12/22 04:00:25;;;;;;;90.07;20.67;;;;;;;;;;6178086;23;20167;-91
2022/12/22 04:03:30;;;;;;;107.60;20.37;;;;;;;;;;6194214;23;20199;-88
2022/12/22 04:06:37;;;;;;;62.90;20.93;;;;;;;;;;6181169;23;20168;-92
2022/12/22 04:12:53;;;;;;;60.87;20.60;;;;;;;;;;6181299;23;20207;-89
2022/12/22 04:13:05;;;;;;;56.13;20.13;;;;;;;;;;6182591;23;20611;-90
2022/12/22 04:16:10;;;;;;;58.23;19.40;;;;;;;;;;6198821;23;20223;-89
2022/12/22 04:19:15;;;;;;;49.20;18.80;;;;;;;;;;6181886;23;20163;-88
2022/12/22 04:22:22;;;;;;;47.03;18.93;;;;;;;;;;6183175;23;20196;-88
2022/12/22 04:25:28;;;;;;;47.07;17.90;;;;;;;;;;6199586;23;20668;-88
2022/12/22 04:28:33;;;;;;;46.00;17.63;;;;;;;;;;6196506;23;20231;-90
2022/12/22 04:31:38;;;;;;;46.80;17.40;;;;;;;;;;6180699;23;20207;-91
2022/12/22 04:34:43;;;;;;;50.10;18.17;;;;;;;;;;6179458;23;20225;-90
2022/12/22 04:37:49;;;;;;;50.43;18.87;;;;;;;;;;6179918;23;20243;-89
2022/12/22 04:40:54;;;;;;;47.90;19.07;;;;;;;;;;6196236;23;20167;-92
2022/12/22 04:44:26;;;;;;;50.53;19.47;;;;;;;;;;6179048;23;20693;-91
2022/12/22 04:47:31;;;;;;;54.07;19.47;;;;;;;;;;6179467;23;20159;-90
2022/12/22 04:50:36;;;;;;;49.87;18.03;;;;;;;;;;6182736;23;20152;-92
2022/12/22 04:53:43;;;;;;;57.43;20.03;;;;;;;;;;6199951;23;20168;-89
2022/12/22 04:56:48;;;;;;;57.77;20.30;;;;;;;;;;6182805;23;20187;-91
2022/12/22 04:59:54;;;;;;;52.03;19.97;;;;;;;;;;6181229;23;20176;-88
2022/12/22 05:02:59;;;;;;;51.07;19.53;;;;;;;;;;6182586;23;20188;-91
2022/12/22 05:06:05;;;;;;;61.90;20.60;;;;;;;;;;6183644;23;20167;-89
2022/12/22 05:09:12;;;;;;;53.37;19.23;;;;;;;;;;6181097;23;20190;-90
2022/12/22 05:15:40;;;;;;;58.03;19.23;;;;;;;;;;6179677;23;20164;-90
2022/12/22 05:18:45;;;;;;;53.80;20.27;;;;;;;;;;6179791;23;20168;-87
2022/12/22 05:21:50;;;;;;;55.60;19.93;;;;;;;;;;6197557;23;20180;-88
2022/12/22 05:24:57;;;;;;;50.97;19.97;;;;;;;;;;6180965;23;20291;-89
2022/12/22 05:28:02;;;;;;;60.00;20.37;;;;;;;;;;6198554;23;20156;-93
2022/12/22 05:31:08;;;;;;;59.53;21.67;;;;;;;;;;6182376;23;20172;-88
2022/12/22 05:34:13;;;;;;;59.43;21.63;;;;;;;;;;6200580;23;20175;-88
2022/12/22 05:37:19;;;;;;;48.93;19.50;;;;;;;;;;6182373;23;20168;-91
2022/12/22 05:40:26;;;;;;;53.07;18.57;;;;;;;;;;6183294;23;20175;-88
2022/12/22 05:43:36;;;;;;;57.40;20.43;;;;;;;;;;6182391;23;20207;-90
2022/12/22 05:46:41;;;;;;;49.43;19.90;;;;;;;;;;6201809;23;20489;-90
2022/12/22 05:49:46;;;;;;;54.93;19.20;;;;;;;;;;6182567;23;20176;-89
2022/12/22 05:52:51;;;;;;;58.03;20.50;;;;;;;;;;6183797;23;20176;-90
2022/12/22 05:55:59;;;;;;;54.37;19.03;;;;;;;;;;6187747;23;20180;-89
2022/12/22 05:59:05;;;;;;;49.10;18.50;;;;;;;;;;6170239;23;20213;-89
2022/12/22 06:02:10;;;;;;;49.00;18.90;;;;;;;;;;6184737;23;20242;-89
2022/12/22 06:05:17;;;;;;;48.23;19.43;;;;;;;;;;6184319;23;20164;-88
2022/12/22 06:08:23;;;;;;;50.93;19.87;;;;;;;;;;6184053;23;20175;-89
2022/12/22 06:11:29;;;;;;;52.47;19.43;;;;;;;;;;6182650;23;20220;-89
2022/12/22 06:14:34;;;;;;;53.60;19.93;;;;;;;;;;6184054;23;20306;-89
2022/12/22 06:17:39;;;;;;;50.57;18.37;;;;;;;;;;6184075;23;20192;-91
2022/12/22 06:20:46;;;;;;;45.70;17.50;;;;;;;;;;6182392;23;20167;-89
2022/12/22 06:23:53;;;;;;;46.33;18.40;;;;;;;;;;6181770;23;20192;-89
2022/12/22 06:27:00;;;;;;;49.67;18.60;;;;;;;;;;6184362;23;20247;-90
2022/12/22 06:30:06;;;;;;;44.67;17.53;;;;;;;;;;6183285;23;20168;-89
2022/12/22 06:33:11;;;;;;;47.67;18.30;;;;;;;;;;6183116;23;20247;-89
2022/12/22 06:36:16;;;;;;;50.77;18.43;;;;;;;;;;6182090;23;20607;-88
2022/12/22 06:39:21;;;;;;;50.97;19.00;;;;;;;;;;6183258;23;20599;-91
2022/12/22 06:46:00;;;;;;;52.77;19.17;;;;;;;;;;6165641;23;20341;-90
2022/12/22 06:49:09;;;;;;;55.27;19.17;;;;;;;;;;6184149;23;20167;-89
2022/12/22 06:52:14;;;;;;;42.87;17.70;;;;;;;;;;6183806;23;20213;-88
2022/12/22 06:55:18;;;;;;;48.87;17.40;;;;;;;;;;6182276;23;20176;-90
2022/12/22 06:58:25;;;;;;;47.03;18.13;;;;;;;;;;6199928;23;20150;-88
2022/12/22 07:01:30;;;;;;;43.73;18.27;;;;;;;;;;6201304;23;20159;-91
2022/12/22 07:04:36;;;;;;;45.80;18.43;;;;;;;;;;6182598;23;20195;-90
2022/12/22 07:07:41;;;;;;;53.67;18.67;;;;;;;;;;6183319;23;20188;-89
2022/12/22 07:10:58;;;;;;;53.90;17.83;;;;;;;;;;6186000;23;20179;-89
2022/12/22 07:14:04;;;;;;;48.27;18.47;;;;;;;;;;6182337;23;20223;-90
2022/12/22 07:17:10;;;;;;;49.27;19.37;;;;;;;;;;6183303;23;20159;-90
2022/12/22 07:20:16;;;;;;;50.93;20.73;;;;;;;;;;6183384;23;20167;-88
2022/12/22 07:23:22;;;;;;;48.90;17.97;;;;;;;;;;6182829;23;20326;-90
2022/12/22 07:26:27;;;;;;;44.53;17.47;;;;;;;;;;6182250;23;20168;-89
2022/12/22 07:29:35;;;;;;;42.73;17.17;;;;;;;;;;6183074;23;20227;-89
2022/12/22 07:32:42;;;;;;;45.87;17.90;;;;;;;;;;6183165;23;20179;-91
2022/12/22 07:35:47;;;;;;;49.60;19.67;;;;;;;;;;6182333;23;20176;-87
2022/12/22 07:38:53;;;;;;;41.73;16.70;;;;;;;;;;6181790;23;20176;-90
2022/12/22 07:45:22;;;;;;;45.50;16.83;;;;;;;;;;6179527;23;20192;-90
2022/12/22 07:51:50;;;;;;;41.70;16.30;;;;;;;;;;6181330;23;20179;-90
2022/12/22 07:54:55;;;;;;;44.67;18.37;;;;;;;;;;6180769;23;20167;-89
2022/12/22 07:58:00;;;;;;;50.17;18.43;;;;;;;;;;6182122;23;20248;-89
2022/12/22 08:01:07;;;;;;;67.33;25.87;;;;;;;;;;6181931;23;20179;-89
2022/12/22 08:04:13;;;;;;;43.00;16.97;;;;;;;;;;6182696;23;20661;-90
2022/12/22 08:07:18;;;;;;;43.67;17.30;;;;;;;;;;6183307;23;20168;-90
2022/12/22 08:10:26;;;;;;;41.03;16.50;;;;;;;;;;6181460;23;20172;-89
2022/12/22 08:13:31;;;;;;;44.77;18.07;;;;;;;;;;6180968;23;20176;-89
2022/12/22 08:16:38;;;;;;;40.40;16.77;;;;;;;;;;6181990;23;20211;-90
2022/12/22 08:19:43;;;;;;;43.17;16.87;;;;;;;;;;6180939;23;20247;-89
2022/12/22 08:22:48;;;;;;;40.47;15.43;;;;;;;;;;6181384;23;20164;-88
2022/12/22 08:25:56;;;;;;;38.70;16.00;;;;;;;;;;6181269;23;20231;-91
2022/12/22 08:29:04;;;;;;;39.80;15.83;;;;;;;;;;6201903;23;20209;-89
2022/12/22 08:32:12;;;;;;;43.00;16.57;;;;;;;;;;6180689;23;20601;-89
2022/12/22 08:35:18;;;;;;;42.70;17.67;;;;;;;;;;6183518;23;20176;-88
2022/12/22 08:38:24;;;;;;;40.67;16.13;;;;;;;;;;6183401;23;20245;-90
2022/12/22 08:44:53;;;;;;;45.47;17.27;;;;;;;;;;6182359;23;20219;-91
2022/12/22 08:48:05;;;;;;;38.90;16.10;;;;;;;;;;6200042;23;20168;-91
2022/12/22 08:51:10;;;;;;;39.53;16.43;;;;;;;;;;6184824;23;20168;-90
2022/12/22 08:54:16;;;;;;;38.97;16.30;;;;;;;;;;6185226;23;20228;-89
2022/12/22 08:57:23;;;;;;;36.43;13.63;;;;;;;;;;6201742;23;20180;-89
2022/12/22 09:00:30;;;;;;;34.93;14.57;;;;;;;;;;6184174;23;20247;-91
2022/12/22 09:03:37;;;;;;;44.30;18.43;;;;;;;;;;6184375;23;20187;-93
2022/12/22 09:06:42;;;;;;;35.03;14.40;;;;;;;;;;6186858;23;20179;-89
2022/12/22 09:09:47;;;;;;;41.27;17.17;;;;;;;;;;6185409;23;20211;-90
2022/12/22 09:12:52;;;;;;;38.57;16.63;;;;;;;;;;6184561;23;20176;-90
2022/12/22 09:15:58;;;;;;;37.33;15.83;;;;;;;;;;6205623;23;20179;-91
2022/12/22 09:19:06;;;;;;;45.03;17.60;;;;;;;;;;6187607;23;20196;-89
2022/12/22 09:22:12;;;;;;;43.63;18.30;;;;;;;;;;6169726;23;20172;-90
2022/12/22 09:25:18;;;;;;;39.40;15.83;;;;;;;;;;6184391;23;20200;-90
2022/12/22 09:28:27;;;;;;;42.13;15.03;;;;;;;;;;6180996;23;20176;-89
2022/12/22 09:31:32;;;;;;;38.80;15.17;;;;;;;;;;6183440;23;20168;-91
2022/12/22 09:34:39;;;;;;;38.73;15.33;;;;;;;;;;6184574;23;20190;-91
2022/12/22 09:37:44;;;;;;;41.20;14.83;;;;;;;;;;6184750;23;20175;-90
2022/12/22 09:40:50;;;;;;;36.27;14.77;;;;;;;;;;6184057;23;20168;-90
2022/12/22 09:44:01;;;;;;;37.87;13.47;;;;;;;;;;6181054;23;20239;-91
2022/12/22 09:47:13;;;;;;;37.07;14.50;;;;;;;;;;6180703;23;20211;-91
2022/12/22 09:50:22;;;;;;;34.43;14.77;;;;;;;;;;6179886;23;20199;-89
2022/12/22 09:53:27;;;;;;;36.73;15.63;;;;;;;;;;6180691;23;20180;-92
2022/12/22 09:56:32;;;;;;;32.33;14.70;;;;;;;;;;6180938;23;20219;-91
2022/12/22 09:59:37;;;;;;;41.37;14.90;;;;;;;;;;6181384;23;20191;-89
2022/12/22 10:02:48;;;;;;;34.10;14.43;;;;;;;;;;6180622;23;20171;-90
2022/12/22 10:05:57;;;;;;;37.63;15.33;;;;;;;;;;6181504;23;20175;-90
2022/12/22 10:09:04;;;;;;;40.90;16.13;;;;;;;;;;6181561;23;20191;-89
2022/12/22 10:12:14;;;;;;;38.20;15.50;;;;;;;;;;6180143;23;20272;-92
2022/12/22 10:15:20;;;;;;;33.23;14.67;;;;;;;;;;6179802;23;20619;-89
2022/12/22 10:18:26;;;;;;;41.10;15.60;;;;;;;;;;6180925;23;20256;-89
2022/12/22 10:21:33;;;;;;;38.20;16.90;;;;;;;;;;6181407;23;20176;-90
2022/12/22 10:24:38;;;;;;;47.03;20.00;;;;;;;;;;6180113;23;20199;-89
2022/12/22 10:27:43;;;;;;;47.77;20.20;;;;;;;;;;6182869;23;20254;-89
2022/12/22 10:30:48;;;;;;;42.63;16.80;;;;;;;;;;6182935;23;20168;-90
2022/12/22 10:33:55;;;;;;;45.90;18.00;;;;;;;;;;6178868;23;20250;-88
2022/12/22 10:37:03;;;;;;;44.27;16.47;;;;;;;;;;6182020;23;20227;-88
2022/12/22 10:40:15;;;;;;;34.13;14.33;;;;;;;;;;6180289;23;20238;-90
2022/12/22 10:43:21;;;;;;;37.27;14.33;;;;;;;;;;6179085;23;20197;-92
2022/12/22 10:46:31;;;;;;;35.90;14.23;;;;;;;;;;6179793;23;20195;-89
2022/12/22 10:49:38;;;;;;;31.33;14.07;;;;;;;;;;6180030;23;20548;-90
2022/12/22 10:52:50;;;;;;;39.63;17.33;;;;;;;;;;6180375;23;20183;-91
2022/12/22 10:56:05;;;;;;;46.03;19.03;;;;;;;;;;6180427;23;20171;-91
2022/12/22 10:59:17;;;;;;;41.50;16.80;;;;;;;;;;6180585;23;20250;-91
2022/12/22 11:02:29;;;;;;;48.20;21.37;;;;;;;;;;6199822;23;20156;-90
2022/12/22 11:05:34;;;;;;;45.07;17.70;;;;;;;;;;6180958;23;20190;-90
2022/12/22 11:08:42;;;;;;;41.40;17.83;;;;;;;;;;6181711;23;20196;-92
2022/12/22 11:11:50;;;;;;;46.50;19.07;;;;;;;;;;6182384;23;20212;-91
2022/12/22 11:14:58;;;;;;;40.13;16.27;;;;;;;;;;6179806;23;20188;-88
2022/12/22 11:18:06;;;;;;;36.77;15.23;;;;;;;;;;6182391;23;20184;-88
2022/12/22 11:21:15;;;;;;;49.90;21.80;;;;;;;;;;6181963;23;20215;-88
2022/12/22 11:24:27;;;;;;;35.83;17.70;;;;;;;;;;6198881;23;20195;-90
2022/12/22 11:27:36;;;;;;;42.50;17.37;;;;;;;;;;6181937;23;20509;-89
2022/12/22 11:30:46;;;;;;;32.27;14.23;;;;;;;;;;6180761;23;20180;-91
2022/12/22 11:33:59;;;;;;;40.40;17.43;;;;;;;;;;6180683;23;20180;-88
2022/12/22 11:37:11;;;;;;;36.63;16.00;;;;;;;;;;6182177;23;20299;-91
2022/12/22 11:40:21;;;;;;;32.60;14.80;;;;;;;;;;6180073;23;20183;-91
2022/12/22 11:43:29;;;;;;;32.93;15.90;;;;;;;;;;6197904;23;20171;-92
2022/12/22 11:46:38;;;;;;;36.90;15.13;;;;;;;;;;6181667;23;20176;-91
2022/12/22 11:49:51;;;;;;;34.80;14.07;;;;;;;;;;6179679;23;20236;-91
2022/12/22 11:53:01;;;;;;;49.37;18.83;;;;;;;;;;6181891;23;20171;-89
2022/12/22 11:56:16;;;;;;;52.57;18.27;;;;;;;;;;6180150;23;20176;-91
2022/12/22 11:59:27;;;;;;;56.27;20.40;;;;;;;;;;6182989;23;20225;-92
2022/12/22 12:02:46;;;;;;;65.27;22.97;;;;;;;;;;6182543;23;20246;-92
2022/12/22 12:06:13;;;;;;;46.23;18.20;;;;;;;;;;6181994;23;20203;-91
2022/12/22 12:09:27;;;;;;;41.33;17.00;;;;;;;;;;6183926;23;20195;-91
2022/12/22 12:12:47;;;;;;;35.43;16.50;;;;;;;;;;6182100;23;20216;-89
2022/12/22 12:15:54;;;;;;;32.03;13.63;;;;;;;;;;6196473;23;20215;-89
2022/12/22 12:19:08;;;;;;;33.60;14.63;;;;;;;;;;6181688;23;20229;-90
2022/12/22 12:22:19;;;;;;;33.37;14.63;;;;;;;;;;6182060;23;20239;-91
2022/12/22 12:25:28;;;;;;;35.33;15.70;;;;;;;;;;6183646;23;20247;-88
2022/12/22 12:28:39;;;;;;;34.47;14.63;;;;;;;;;;6200598;23;20176;-89
2022/12/22 12:31:47;;;;;;;34.17;14.67;;;;;;;;;;6183621;23;20167;-90
2022/12/22 12:34:56;;;;;;;27.67;13.37;;;;;;;;;;6184905;23;20215;-90
2022/12/22 12:38:03;;;;;;;31.13;13.70;;;;;;;;;;6185496;23;20245;-91
2022/12/22 12:41:14;;;;;;;30.00;13.40;;;;;;;;;;6186561;23;20195;-89
2022/12/22 12:44:26;;;;;;;31.23;13.53;;;;;;;;;;6184133;23;20535;-91
2022/12/22 12:47:34;;;;;;;30.47;14.10;;;;;;;;;;6204691;23;20246;-93
2022/12/22 12:50:40;;;;;;;34.13;13.00;;;;;;;;;;6186390;23;20172;-91
2022/12/22 12:54:12;;;;;;;30.83;14.07;;;;;;;;;;6183513;23;20167;-90
2022/12/22 12:57:31;;;;;;;32.23;13.17;;;;;;;;;;6184853;23;20199;-93
2022/12/22 13:00:52;;;;;;;30.20;12.07;;;;;;;;;;6185858;23;20224;-91
2022/12/22 13:03:58;;;;;;;27.77;12.33;;;;;;;;;;6186135;23;20588;-89
2022/12/22 13:07:04;;;;;;;26.60;11.60;;;;;;;;;;6187449;23;20176;-90
2022/12/22 13:10:18;;;;;;;35.30;13.27;;;;;;;;;;6201211;23;20168;-88
2022/12/22 13:13:42;;;;;;;23.80;10.97;;;;;;;;;;6183439;23;20198;-88
2022/12/22 13:16:49;;;;;;;40.73;16.60;;;;;;;;;;6180726;23;20172;-89
2022/12/22 13:19:54;;;;;;;40.33;18.30;;;;;;;;;;6180565;23;20176;-87
2022/12/22 13:23:01;;;;;;;35.70;16.07;;;;;;;;;;6181337;23;20196;-90
2022/12/22 13:26:07;;;;;;;40.87;18.20;;;;;;;;;;6181084;23;20280;-89
2022/12/22 13:29:17;;;;;;;38.13;17.07;;;;;;;;;;6182578;23;20195;-87
2022/12/22 13:32:29;;;;;;;37.63;16.33;;;;;;;;;;6200900;23;20291;-89
2022/12/22 13:35:37;;;;;;;43.50;18.33;;;;;;;;;;6183120;23;20175;-84
2022/12/22 13:38:42;;;;;;;44.13;17.80;;;;;;;;;;6185661;23;20566;-88
2022/12/22 13:41:49;;;;;;;39.83;17.33;;;;;;;;;;6180636;23;20235;-88
2022/12/22 13:44:56;;;;;;;40.23;18.77;;;;;;;;;;6197069;23;20199;-90
2022/12/22 13:48:05;;;;;;;36.47;14.53;;;;;;;;;;6182050;23;20155;-89
2022/12/22 13:51:14;;;;;;;29.97;13.47;;;;;;;;;;6180802;23;20176;-88
2022/12/22 13:54:22;;;;;;;36.50;15.77;;;;;;;;;;6198103;23;20168;-91
2022/12/22 13:57:27;;;;;;;36.90;15.87;;;;;;;;;;6180301;23;20172;-91
2022/12/22 14:00:36;;;;;;;33.30;14.50;;;;;;;;;;6179901;23;20171;-90
2022/12/22 14:03:47;;;;;;;29.60;12.47;;;;;;;;;;6181668;23;20255;-90
2022/12/22 14:06:56;;;;;;;24.63;10.43;;;;;;;;;;6182588;23;20179;-88
2022/12/22 14:10:06;;;;;;;21.83;11.27;;;;;;;;;;6181490;23;20175;-90
2022/12/22 14:13:13;;;;;;;24.90;11.57;;;;;;;;;;6181401;23;20168;-90
2022/12/22 14:16:19;;;;;;;35.23;15.90;;;;;;;;;;6180926;23;20163;-89
2022/12/22 14:19:26;;;;;;;30.27;12.90;;;;;;;;;;6181290;23;20203;-89
2022/12/22 14:22:34;;;;;;;26.03;11.97;;;;;;;;;;6180333;23;20211;-91
2022/12/22 14:25:44;;;;;;;37.20;17.43;;;;;;;;;;6178731;23;20199;-89
2022/12/22 14:28:52;;;;;;;27.80;12.27;;;;;;;;;;6181931;23;20172;-91
2022/12/22 14:32:02;;;;;;;28.93;12.33;;;;;;;;;;6180501;23;20176;-89
2022/12/22 14:35:24;;;;;;;42.13;17.20;;;;;;;;;;6184476;23;20168;-88
2022/12/22 14:38:29;;;;;;;43.40;15.77;;;;;;;;;;6180600;23;20602;-87
2022/12/22 14:41:43;;;;;;;48.00;15.80;;;;;;;;;;6178268;23;20251;-88
2022/12/22 14:44:52;;;;;;;33.37;11.60;;;;;;;;;;6182035;23;20199;-89
2022/12/22 14:47:58;;;;;;;43.93;15.90;;;;;;;;;;6196491;23;20195;-90
2022/12/22 14:51:05;;;;;;;26.27;11.77;;;;;;;;;;6181790;23;20171;-88
2022/12/22 14:54:18;;;;;;;33.90;14.20;;;;;;;;;;6180894;23;20171;-89
2022/12/22 14:57:31;;;;;;;42.87;16.93;;;;;;;;;;6179810;23;20216;-89
2022/12/22 15:00:38;;;;;;;47.93;19.73;;;;;;;;;;6179404;23;20614;-90
2022/12/22 15:03:43;;;;;;;46.27;17.37;;;;;;;;;;6176779;23;20623;-88
2022/12/22 15:06:50;;;;;;;38.27;16.33;;;;;;;;;;6177251;23;20199;-89
2022/12/22 15:10:01;;;;;;;40.70;15.40;;;;;;;;;;6176962;23;20665;-90
2022/12/22 15:13:08;;;;;;;40.50;15.80;;;;;;;;;;6177270;23;20172;-88
2022/12/22 15:16:15;;;;;;;33.17;13.17;;;;;;;;;;6179044;23;20163;-90
2022/12/22 15:19:22;;;;;;;42.97;16.13;;;;;;;;;;6177193;23;20264;-87
2022/12/22 15:22:29;;;;;;;34.20;12.20;;;;;;;;;;6178188;23;20211;-88
2022/12/22 15:25:35;;;;;;;28.13;11.73;;;;;;;;;;6179416;23;20214;-89
2022/12/22 15:28:40;;;;;;;26.63;9.93;;;;;;;;;;6182222;23;20192;-89
2022/12/22 15:31:45;;;;;;;31.43;13.00;;;;;;;;;;6196395;23;20591;-88
2022/12/22 15:34:50;;;;;;;30.03;13.97;;;;;;;;;;6178145;23;20187;-86
2022/12/22 15:37:57;;;;;;;30.80;13.87;;;;;;;;;;6182198;23;20158;-89
2022/12/22 15:41:02;;;;;;;45.20;17.70;;;;;;;;;;6180736;23;20168;-89
2022/12/22 15:44:07;;;;;;;46.30;17.70;;;;;;;;;;6179262;23;20167;-88
2022/12/22 15:47:13;;;;;;;37.87;15.77;;;;;;;;;;6179975;23;20559;-89
2022/12/22 15:50:21;;;;;;;35.00;14.67;;;;;;;;;;6179749;23;20522;-88
2022/12/22 15:53:30;;;;;;;36.00;14.53;;;;;;;;;;6185563;23;20152;-88
2022/12/22 15:56:36;;;;;;;33.93;13.80;;;;;;;;;;6180939;23;20175;-88
2022/12/22 15:59:42;;;;;;;38.43;14.93;;;;;;;;;;6181519;23;20249;-88
2022/12/22 16:02:49;;;;;;;39.47;15.70;;;;;;;;;;6180018;23;20172;-90
2022/12/22 16:05:54;;;;;;;28.30;11.57;;;;;;;;;;6197052;23;20504;-88
2022/12/22 16:09:01;;;;;;;30.67;12.10;;;;;;;;;;6180275;23;20179;-90
2022/12/22 16:12:10;;;;;;;25.87;11.50;;;;;;;;;;6198376;23;20250;-89
2022/12/22 16:15:18;;;;;;;33.17;13.03;;;;;;;;;;6194836;23;20231;-90
2022/12/22 16:18:23;;;;;;;40.03;14.63;;;;;;;;;;6181141;23;20159;-90
2022/12/22 16:21:32;;;;;;;25.53;11.37;;;;;;;;;;6180732;23;20168;-89
2022/12/22 16:24:40;;;;;;;27.43;10.73;;;;;;;;;;6182588;23;20180;-88
2022/12/22 16:27:48;;;;;;;29.73;13.07;;;;;;;;;;6180912;23;20164;-90
2022/12/22 16:30:54;;;;;;;29.43;13.57;;;;;;;;;;6199087;23;20192;-88
2022/12/22 16:33:58;;;;;;;30.97;13.07;;;;;;;;;;6180933;23;20531;-90
2022/12/22 16:37:03;;;;;;;32.00;12.73;;;;;;;;;;6184394;23;20184;-89
2022/12/22 16:40:13;;;;;;;33.90;12.17;;;;;;;;;;6199216;23;20187;-88
2022/12/22 16:43:24;;;;;;;38.70;15.73;;;;;;;;;;6179534;23;20171;-88
2022/12/22 16:46:34;;;;;;;44.33;17.70;;;;;;;;;;6180171;23;20191;-88
2022/12/22 16:49:40;;;;;;;49.13;20.57;;;;;;;;;;6181808;23;20164;-89
2022/12/22 16:52:47;;;;;;;53.60;19.23;;;;;;;;;;6182875;23;20199;-90
2022/12/22 16:55:54;;;;;;;37.20;15.67;;;;;;;;;;6182221;23;20212;-90
2022/12/22 16:58:59;;;;;;;46.60;19.13;;;;;;;;;;6180033;23;20602;-89
2022/12/22 17:02:05;;;;;;;43.47;15.60;;;;;;;;;;6180373;23;20512;-88
2022/12/22 17:05:18;;;;;;;35.63;14.77;;;;;;;;;;6182230;23;20164;-90
2022/12/22 17:08:24;;;;;;;44.63;19.10;;;;;;;;;;6178757;23;20235;-87
2022/12/22 17:11:31;;;;;;;56.13;20.30;;;;;;;;;;6182290;23;20160;-89
2022/12/22 17:14:38;;;;;;;34.17;13.60;;;;;;;;;;6181017;23;20353;-89
2022/12/22 17:17:43;;;;;;;35.67;14.93;;;;;;;;;;6180836;23;20171;-89
2022/12/22 17:20:49;;;;;;;33.70;13.20;;;;;;;;;;6197708;23;20167;-90
2022/12/22 17:23:55;;;;;;;35.17;13.83;;;;;;;;;;6180403;23;20183;-90
2022/12/22 17:27:05;;;;;;;33.00;14.60;;;;;;;;;;6180462;23;20203;-87
2022/12/22 17:30:15;;;;;;;35.33;15.27;;;;;;;;;;6197568;23;20184;-89
2022/12/22 17:33:20;;;;;;;32.67;12.83;;;;;;;;;;6178923;23;20167;-89
2022/12/22 17:36:31;;;;;;;33.00;13.93;;;;;;;;;;6181889;23;20240;-88
2022/12/22 17:39:37;;;;;;;38.07;17.03;;;;;;;;;;6179603;23;20168;-90
2022/12/22 17:42:44;;;;;;;42.03;17.60;;;;;;;;;;6182631;23;20212;-86
2022/12/22 17:49:37;;;;;;;38.67;14.90;;;;;;;;;;6182091;23;20159;-89
2022/12/22 17:52:43;;;;;;;37.33;14.30;;;;;;;;;;6180228;23;20234;-87
2022/12/22 17:55:48;;;;;;;33.13;13.83;;;;;;;;;;6182101;23;20183;-91
2022/12/22 17:58:58;;;;;;;28.40;11.60;;;;;;;;;;6199207;23;20243;-90
2022/12/22 18:02:03;;;;;;;44.70;16.70;;;;;;;;;;6183028;23;20164;-89
2022/12/22 18:05:12;;;;;;;29.97;12.30;;;;;;;;;;6182524;23;20175;-89
2022/12/22 18:08:19;;;;;;;30.53;15.13;;;;;;;;;;6180643;23;20199;-88
2022/12/22 18:11:24;;;;;;;41.07;17.93;;;;;;;;;;6199831;23;20176;-89
2022/12/22 18:14:31;;;;;;;39.07;15.43;;;;;;;;;;6181059;23;20207;-90
2022/12/22 18:17:37;;;;;;;30.33;13.23;;;;;;;;;;6181673;23;20211;-90
2022/12/22 18:20:42;;;;;;;37.73;15.37;;;;;;;;;;6181967;23;20615;-89
2022/12/22 18:23:47;;;;;;;37.17;14.03;;;;;;;;;;6180568;23;20319;-87
2022/12/22 18:26:53;;;;;;;31.20;13.40;;;;;;;;;;6197591;23;20228;-87
2022/12/22 18:29:59;;;;;;;36.67;16.20;;;;;;;;;;6180570;23;20176;-88
2022/12/22 18:33:05;;;;;;;32.80;12.17;;;;;;;;;;6179189;23;20168;-88
2022/12/22 18:36:21;;;;;;;37.87;13.87;;;;;;;;;;6197433;23;20187;-87
2022/12/22 18:39:26;;;;;;;38.93;16.27;;;;;;;;;;6197103;23;20169;-90
2022/12/22 18:42:40;;;;;;;38.43;15.57;;;;;;;;;;6196535;23;20183;-87
2022/12/22 18:45:46;;;;;;;44.40;17.43;;;;;;;;;;6182691;23;20172;-89
2022/12/22 18:48:53;;;;;;;34.83;15.70;;;;;;;;;;6181017;23;20168;-89
2022/12/22 18:51:57;;;;;;;36.53;14.97;;;;;;;;;;6181799;23;20218;-88
2022/12/22 18:55:02;;;;;;;48.20;18.00;;;;;;;;;;6180195;23;20162;-90
2022/12/22 18:58:12;;;;;;;37.00;14.73;;;;;;;;;;6177934;23;20183;-87
2022/12/22 19:01:19;;;;;;;29.53;12.13;;;;;;;;;;6182486;23;20455;-87
2022/12/22 19:04:24;;;;;;;26.17;10.03;;;;;;;;;;6180195;23;20168;-89
2022/12/22 19:07:29;;;;;;;31.20;12.77;;;;;;;;;;6198569;23;20196;-89
2022/12/22 19:10:38;;;;;;;42.77;17.20;;;;;;;;;;6179608;23;20284;-91
2022/12/22 19:13:44;;;;;;;49.70;17.63;;;;;;;;;;6179575;23;20189;-88
2022/12/22 19:16:51;;;;;;;43.40;17.77;;;;;;;;;;6179672;23;20167;-89
2022/12/22 19:19:56;;;;;;;36.43;15.37;;;;;;;;;;6179138;23;20203;-91
2022/12/22 19:23:02;;;;;;;34.17;13.30;;;;;;;;;;6178223;23;20308;-86
2022/12/22 19:26:11;;;;;;;27.47;11.30;;;;;;;;;;6177661;23;20195;-88
2022/12/22 19:29:17;;;;;;;22.97;10.57;;;;;;;;;;6196147;23;20160;-89
2022/12/22 19:32:25;;;;;;;31.73;13.43;;;;;;;;;;6180546;23;20164;-88
2022/12/22 19:35:31;;;;;;;24.40;9.93;;;;;;;;;;6179359;23;20168;-88
2022/12/22 19:38:36;;;;;;;24.53;10.93;;;;;;;;;;6196720;23;20315;-89
2022/12/22 19:41:43;;;;;;;31.40;13.20;;;;;;;;;;6196560;23;20168;-88
2022/12/22 19:44:49;;;;;;;37.00;14.63;;;;;;;;;;6180040;23;20211;-90
2022/12/22 19:47:57;;;;;;;42.77;16.47;;;;;;;;;;6180052;23;20650;-89
2022/12/22 19:51:02;;;;;;;31.77;13.00;;;;;;;;;;6179428;23;20187;-90
2022/12/22 19:54:07;;;;;;;32.07;13.23;;;;;;;;;;6181523;23;20307;-89
2022/12/22 19:57:19;;;;;;;25.97;10.43;;;;;;;;;;6181026;23;20517;-90
2022/12/22 20:00:25;;;;;;;41.67;15.53;;;;;;;;;;6180669;23;20208;-89
2022/12/22 20:03:36;;;;;;;47.47;15.00;;;;;;;;;;6196228;23;20176;-90
2022/12/22 20:06:41;;;;;;;38.43;13.03;;;;;;;;;;6179386;23;20195;-89
2022/12/22 20:09:46;;;;;;;32.13;12.93;;;;;;;;;;6180488;23;20184;-88
2022/12/22 20:12:52;;;;;;;23.87;10.77;;;;;;;;;;6196617;23;20187;-88
2022/12/22 20:15:57;;;;;;;31.40;12.37;;;;;;;;;;6182286;23;20187;-88
2022/12/22 20:19:03;;;;;;;26.20;10.17;;;;;;;;;;6179487;23;20171;-88
2022/12/22 20:22:10;;;;;;;50.93;17.57;;;;;;;;;;6179286;23;20188;-88
2022/12/22 20:25:20;;;;;;;78.40;29.23;;;;;;;;;;6179768;23;20208;-90
2022/12/22 20:28:26;;;;;;;35.13;14.67;;;;;;;;;;6180311;23;20195;-86
2022/12/22 20:31:32;;;;;;;31.63;12.67;;;;;;;;;;6182080;23;20160;-86
2022/12/22 20:34:38;;;;;;;33.53;14.17;;;;;;;;;;6179429;23;20168;-88
2022/12/22 20:37:43;;;;;;;103.87;27.60;;;;;;;;;;6177120;23;20171;-88
2022/12/22 20:40:49;;;;;;;33.00;13.63;;;;;;;;;;6178107;23;20171;-87
2022/12/22 20:43:55;;;;;;;30.43;12.97;;;;;;;;;;6179146;23;20171;-88
2022/12/22 20:47:00;;;;;;;35.33;13.33;;;;;;;;;;6183142;23;20271;-89
2022/12/22 20:50:17;;;;;;;37.97;15.40;;;;;;;;;;6182096;23;20164;-88
2022/12/22 20:53:22;;;;;;;41.70;15.27;;;;;;;;;;6181863;23;20502;-86
2022/12/22 20:56:30;;;;;;;52.63;17.90;;;;;;;;;;6183544;23;20191;-88
2022/12/22 20:59:35;;;;;;;30.07;11.63;;;;;;;;;;6182740;23;20164;-89
2022/12/22 21:02:41;;;;;;;37.67;13.33;;;;;;;;;;6181896;23;20178;-90
2022/12/22 21:05:49;;;;;;;30.17;11.80;;;;;;;;;;6199580;23;20223;-87
2022/12/22 21:08:55;;;;;;;51.47;17.87;;;;;;;;;;6180531;23;20658;-89
2022/12/22 21:12:00;;;;;;;34.53;11.47;;;;;;;;;;6183500;23;20156;-88
2022/12/22 21:15:06;;;;;;;34.20;9.97;;;;;;;;;;6182272;23;20168;-88
2022/12/22 21:18:14;;;;;;;35.50;10.57;;;;;;;;;;6198029;23;20171;-90
2022/12/22 21:21:21;;;;;;;63.20;11.67;;;;;;;;;;6180870;23;20229;-88
2022/12/22 21:24:26;;;;;;;48.43;10.63;;;;;;;;;;6198140;23;20167;-89
2022/12/22 21:27:31;;;;;;;63.57;11.07;;;;;;;;;;6198597;23;20259;-88
2022/12/22 21:30:37;;;;;;;44.50;10.07;;;;;;;;;;6180934;23;20219;-88
2022/12/22 21:33:42;;;;;;;78.93;10.73;;;;;;;;;;6179517;23;20219;-89
2022/12/22 21:36:50;;;;;;;56.17;9.80;;;;;;;;;;6180867;23;20176;-88
2022/12/22 21:39:55;;;;;;;62.23;11.30;;;;;;;;;;6196984;23;20175;-89
2022/12/22 21:43:00;;;;;;;34.40;8.60;;;;;;;;;;6198610;23;20168;-87
2022/12/22 21:46:06;;;;;;;71.70;9.63;;;;;;;;;;6197758;23;20304;-89
2022/12/22 21:49:18;;;;;;;45.77;8.70;;;;;;;;;;6195254;23;20368;-86
2022/12/22 21:52:24;;;;;;;82.83;10.70;;;;;;;;;;6197152;23;20179;-87
2022/12/22 21:55:31;;;;;;;32.23;9.57;;;;;;;;;;6180539;23;20171;-87
2022/12/22 21:58:36;;;;;;;56.63;10.00;;;;;;;;;;6197794;23;20172;-87
2022/12/22 22:01:41;;;;;;;73.63;11.60;;;;;;;;;;6180138;23;20477;-89
2022/12/22 22:04:47;;;;;;;58.00;9.07;;;;;;;;;;6177650;23;20168;-88